createdAt,value
2023-04-19T00:00:21.506Z,95.84
2023-04-19T00:02:51.722Z,98.15
2023-04-19T00:05:20.286Z,96.53
2023-04-19T00:07:47.447Z,96.99
2023-04-19T00:10:14.554Z,100.00
2023-04-19T00:12:41.629Z,100.00
2023-04-19T00:15:09.043Z,99.60
2023-04-19T00:17:36.456Z,100.00
2023-04-19T00:20:04.531Z,98.61
2023-04-19T00:22:31.710Z,97.82
2023-04-19T00:24:59.196Z,95.49
2023-04-19T00:27:26.289Z,95.86
2023-04-19T00:29:53.518Z,95.78
2023-04-19T00:32:20.985Z,97.99
2023-04-19T00:34:48.138Z,95.92
2023-04-19T00:37:15.250Z,96.07
2023-04-19T00:39:42.369Z,93.89
2023-04-19T00:42:09.523Z,92.24
2023-04-19T00:44:36.655Z,91.69
2023-04-19T00:47:04.115Z,90.62
2023-04-19T00:49:31.430Z,91.06
2023-04-19T00:51:58.496Z,93.92
2023-04-19T00:54:26.092Z,98.25
2023-04-19T00:56:53.506Z,98.73
2023-04-19T00:59:20.803Z,98.95
2023-04-19T01:01:48.357Z,94.92
2023-04-19T01:04:16.853Z,98.49
2023-04-19T01:06:44.485Z,100.00
2023-04-19T01:09:11.634Z,100.00
2023-04-19T01:11:43.161Z,100.00
2023-04-19T01:14:11.006Z,100.00
2023-04-19T01:16:39.403Z,100.00
2023-04-19T01:19:06.730Z,100.00
2023-04-19T01:21:38.394Z,100.00
2023-04-19T01:24:06.103Z,100.00
2023-04-19T01:26:33.232Z,100.00
2023-04-19T01:29:02.871Z,100.00
2023-04-19T01:31:30.057Z,100.00
2023-04-19T01:33:57.293Z,100.00
2023-04-19T01:36:24.361Z,100.00
2023-04-19T01:38:51.506Z,100.00
2023-04-19T01:41:20.561Z,100.00
2023-04-19T01:43:47.703Z,100.00
2023-04-19T01:46:15.224Z,100.00
2023-04-19T01:48:42.338Z,100.00
2023-04-19T01:51:09.460Z,100.00
2023-04-19T01:53:36.529Z,100.00
2023-04-19T01:56:03.798Z,100.00
2023-04-19T01:58:30.837Z,100.00
2023-04-19T02:00:57.963Z,100.00
2023-04-19T02:03:25.420Z,100.00
2023-04-19T02:05:52.700Z,100.00
2023-04-19T02:08:22.474Z,100.00
2023-04-19T02:10:49.504Z,100.00
2023-04-19T02:13:17.480Z,100.00
2023-04-19T02:15:44.645Z,100.00
2023-04-19T02:18:11.908Z,100.00
2023-04-19T02:20:40.293Z,100.00
2023-04-19T02:23:07.542Z,100.00
2023-04-19T02:25:34.665Z,100.00
2023-04-19T02:28:01.860Z,100.00
2023-04-19T02:30:29.059Z,100.00
2023-04-19T02:32:56.265Z,100.00
2023-04-19T02:35:23.378Z,100.00
2023-04-19T02:37:50.469Z,100.00
2023-04-19T02:40:19.008Z,100.00
2023-04-19T02:42:46.165Z,100.00
2023-04-19T02:45:13.255Z,100.00
2023-04-19T02:47:40.615Z,100.00
2023-04-19T02:50:08.240Z,100.00
2023-04-19T02:52:44.302Z,100.00
2023-04-19T02:55:11.607Z,100.00
2023-04-19T02:57:38.921Z,100.00
2023-04-19T03:00:09.259Z,100.00
2023-04-19T03:02:43.869Z,100.00
2023-04-19T03:05:11.297Z,100.00
2023-04-19T03:07:38.531Z,100.00
2023-04-19T03:10:06.324Z,100.00
2023-04-19T03:12:33.404Z,100.00
2023-04-19T03:15:00.614Z,100.00
2023-04-19T03:17:27.795Z,100.00
2023-04-19T03:19:54.950Z,100.00
2023-04-19T03:22:22.070Z,100.00
2023-04-19T03:24:49.152Z,100.00
2023-04-19T03:27:21.572Z,100.00
2023-04-19T03:29:56.023Z,100.00
2023-04-19T03:32:23.642Z,100.00
2023-04-19T03:34:50.956Z,100.00
2023-04-19T03:37:17.995Z,100.00
2023-04-19T03:39:45.748Z,100.00
2023-04-19T03:42:17.596Z,100.00
2023-04-19T03:45:04.322Z,100.00
2023-04-19T03:47:34.742Z,100.00
2023-04-19T03:50:03.548Z,100.00
2023-04-19T03:52:33.173Z,100.00
2023-04-19T03:55:00.580Z,100.00
2023-04-19T03:57:35.642Z,100.00
2023-04-19T04:00:11.058Z,100.00
2023-04-19T04:02:49.427Z,100.00
2023-04-19T04:05:17.110Z,100.00
2023-04-19T04:07:44.424Z,100.00
2023-04-19T04:10:12.007Z,100.00
2023-04-19T04:12:42.704Z,100.00
2023-04-19T04:15:13.757Z,100.00
2023-04-19T04:17:47.065Z,100.00
2023-04-19T04:20:14.460Z,100.00
2023-04-19T04:22:43.392Z,100.00
2023-04-19T04:25:13.600Z,100.00
2023-04-19T04:27:42.762Z,100.00
2023-04-19T04:30:13.701Z,100.00
2023-04-19T04:32:41.272Z,100.00
2023-04-19T04:35:09.712Z,100.00
2023-04-19T04:37:49.518Z,100.00
2023-04-19T04:40:16.820Z,100.00
2023-04-19T04:42:45.658Z,100.00
2023-04-19T04:45:13.138Z,100.00
2023-04-19T04:47:43.304Z,100.00
2023-04-19T04:50:11.535Z,100.00
2023-04-19T04:52:39.085Z,100.00
2023-04-19T04:55:13.078Z,100.00
2023-04-19T04:57:43.953Z,100.00
2023-04-19T05:00:32.454Z,100.00
2023-04-19T05:03:05.600Z,100.00
2023-04-19T05:05:37.690Z,100.00
2023-04-19T05:08:05.534Z,100.00
2023-04-19T05:10:32.723Z,100.00
2023-04-19T05:13:01.847Z,100.00
2023-04-19T05:15:30.244Z,100.00
2023-04-19T05:17:57.828Z,100.00
2023-04-19T05:20:26.037Z,100.00
2023-04-19T05:23:03.453Z,100.00
2023-04-19T05:25:33.012Z,100.00
2023-04-19T05:28:00.620Z,100.00
2023-04-19T05:30:33.786Z,100.00
2023-04-19T05:33:01.957Z,100.00
2023-04-19T05:35:29.285Z,100.00
2023-04-19T05:37:56.557Z,100.00
2023-04-19T05:40:24.645Z,100.00
2023-04-19T05:42:52.110Z,100.00
2023-04-19T05:45:19.310Z,100.00
2023-04-19T05:47:46.512Z,100.00
2023-04-19T05:50:32.044Z,100.00
2023-04-19T05:53:37.560Z,100.00
2023-04-19T05:56:05.363Z,100.00
2023-04-19T05:58:32.649Z,100.00
2023-04-19T06:01:00.110Z,100.00
2023-04-19T06:03:29.022Z,100.00
2023-04-19T06:05:59.614Z,100.00
2023-04-19T06:08:26.980Z,100.00
2023-04-19T06:11:02.095Z,100.00
2023-04-19T06:13:32.191Z,100.00
2023-04-19T06:15:59.346Z,100.00
2023-04-19T06:18:26.681Z,100.00
2023-04-19T06:20:54.090Z,100.00
2023-04-19T06:23:21.166Z,100.00
2023-04-19T06:25:51.082Z,100.00
2023-04-19T06:28:18.763Z,100.00
2023-04-19T06:30:46.261Z,100.00
2023-04-19T06:33:13.411Z,100.00
2023-04-19T06:35:40.780Z,100.00
2023-04-19T06:38:08.077Z,100.00
2023-04-19T06:40:35.336Z,100.00
2023-04-19T06:43:02.405Z,100.00
2023-04-19T06:45:33.056Z,100.00
2023-04-19T06:48:00.258Z,100.00
2023-04-19T06:50:27.887Z,100.00
2023-04-19T06:52:55.015Z,100.00
2023-04-19T06:55:22.174Z,100.00
2023-04-19T06:57:49.341Z,100.00
2023-04-19T07:00:16.711Z,100.00
2023-04-19T07:02:44.164Z,100.00
2023-04-19T07:05:13.020Z,100.00
2023-04-19T07:07:41.439Z,100.00
2023-04-19T07:10:09.652Z,100.00
2023-04-19T07:12:36.771Z,100.00
2023-04-19T07:15:04.241Z,100.00
2023-04-19T07:17:31.309Z,100.00
2023-04-19T07:19:58.423Z,100.00
2023-04-19T07:22:25.489Z,100.00
2023-04-19T07:24:54.301Z,100.00
2023-04-19T07:27:21.351Z,100.00
2023-04-19T07:29:48.519Z,100.00
2023-04-19T07:32:15.595Z,99.16
2023-04-19T07:34:43.748Z,98.54
2023-04-19T07:37:10.881Z,96.47
2023-04-19T07:39:37.917Z,100.00
2023-04-19T07:42:05.182Z,100.00
2023-04-19T07:44:35.497Z,100.00
2023-04-19T07:47:04.657Z,100.00
2023-04-19T07:49:34.354Z,100.00
2023-04-19T07:52:02.091Z,100.00
2023-04-19T07:54:31.465Z,100.00
2023-04-19T07:56:59.200Z,99.14
2023-04-19T07:59:26.683Z,99.76
2023-04-19T08:01:53.904Z,99.14
2023-04-19T08:04:23.367Z,100.00
2023-04-19T08:06:51.196Z,100.00
2023-04-19T08:09:18.313Z,100.00
2023-04-19T08:11:45.995Z,100.00
2023-04-19T08:14:30.423Z,100.00
2023-04-19T08:19:30.700Z,100.00
2023-04-19T08:21:57.927Z,100.00
2023-04-19T08:24:24.987Z,100.00
2023-04-19T08:26:55.121Z,100.00
2023-04-19T08:29:23.290Z,100.00
2023-04-19T08:31:50.383Z,100.00
2023-04-19T08:34:17.449Z,100.00
2023-04-19T08:36:55.959Z,100.00
2023-04-19T08:39:34.128Z,100.00
2023-04-19T08:42:18.163Z,100.00
2023-04-19T08:45:23.350Z,100.00
2023-04-19T08:47:58.813Z,100.00
2023-04-19T08:50:34.572Z,100.00
2023-04-19T08:53:23.752Z,100.00
2023-04-19T08:56:07.899Z,100.00
2023-04-19T08:58:57.073Z,100.00
2023-04-19T09:01:35.411Z,100.00
2023-04-19T09:04:26.101Z,100.00
2023-04-19T09:06:54.803Z,100.00
2023-04-19T09:09:38.726Z,100.00
2023-04-19T09:12:18.284Z,100.00
2023-04-19T09:14:59.997Z,100.00
2023-04-19T09:17:28.105Z,100.00
2023-04-19T09:19:55.205Z,100.00
2023-04-19T09:22:22.382Z,100.00
2023-04-19T09:27:27.174Z,100.00
2023-04-19T09:29:58.824Z,100.00
2023-04-19T09:32:27.151Z,100.00
2023-04-19T09:34:59.747Z,100.00
2023-04-19T09:39:57.683Z,100.00
2023-04-19T09:42:47.411Z,100.00
2023-04-19T09:45:29.161Z,100.00
2023-04-19T09:48:07.981Z,100.00
2023-04-19T09:50:46.848Z,100.00
2023-04-19T09:53:22.244Z,100.00
2023-04-19T09:56:00.176Z,100.00
2023-04-19T09:58:34.358Z,100.00
2023-04-19T10:01:15.642Z,100.00
2023-04-19T10:03:46.660Z,100.00
2023-04-19T10:06:40.020Z,100.00
2023-04-19T10:09:05.463Z,100.00
2023-04-19T10:11:41.526Z,100.00
2023-04-19T10:14:11.990Z,100.00
2023-04-19T10:16:39.527Z,100.00
2023-04-19T10:19:10.286Z,100.00
2023-04-19T10:21:38.381Z,100.00
2023-04-19T10:24:06.188Z,100.00
2023-04-19T10:27:12.560Z,100.00
2023-04-19T10:29:55.818Z,100.00
2023-04-19T10:32:38.654Z,100.00
2023-04-19T10:35:09.575Z,100.00
2023-04-19T10:37:42.131Z,100.00
2023-04-19T10:40:10.131Z,100.00
2023-04-19T10:43:21.879Z,100.00
2023-04-19T10:45:49.947Z,100.00
2023-04-19T10:48:35.547Z,100.00
2023-04-19T10:51:03.838Z,100.00
2023-04-19T10:53:52.766Z,100.00
2023-04-19T10:56:34.855Z,100.00
2023-04-19T10:59:02.413Z,97.99
2023-04-19T11:01:38.322Z,100.00
2023-04-19T11:04:09.999Z,100.00
2023-04-19T11:06:54.881Z,100.00
2023-04-19T11:09:25.493Z,100.00
2023-04-19T11:11:54.621Z,100.00
2023-04-19T11:14:21.912Z,100.00
2023-04-19T11:16:49.034Z,100.00
2023-04-19T11:19:17.298Z,100.00
2023-04-19T11:21:49.706Z,100.00
2023-04-19T11:24:19.029Z,100.00
2023-04-19T11:26:47.261Z,100.00
2023-04-19T11:29:15.112Z,100.00
2023-04-19T11:31:46.659Z,100.00
2023-04-19T11:34:14.014Z,100.00
2023-04-19T11:36:48.769Z,100.00
2023-04-19T11:39:16.417Z,100.00
2023-04-19T11:41:43.506Z,100.00
2023-04-19T11:44:19.757Z,100.00
2023-04-19T11:46:59.220Z,100.00
2023-04-19T11:49:33.613Z,100.00
2023-04-19T11:52:05.496Z,100.00
2023-04-19T11:54:33.294Z,100.00
2023-04-19T11:57:04.873Z,100.00
2023-04-19T11:59:33.842Z,100.00
2023-04-19T12:02:12.450Z,100.00
2023-04-19T12:04:40.495Z,100.00
2023-04-19T12:07:07.717Z,100.00
2023-04-19T12:09:36.508Z,100.00
2023-04-19T12:12:05.204Z,100.00
2023-04-19T12:14:32.444Z,100.00
2023-04-19T12:17:09.435Z,100.00
2023-04-19T12:19:47.498Z,100.00
2023-04-19T12:22:17.459Z,100.00
2023-04-19T12:24:44.648Z,100.00
2023-04-19T12:27:12.185Z,100.00
2023-04-19T12:29:39.607Z,100.00
2023-04-19T12:32:07.138Z,100.00
2023-04-19T12:34:34.253Z,100.00
2023-04-19T12:37:03.807Z,100.00
2023-04-19T12:39:31.172Z,98.17
2023-04-19T12:41:58.224Z,97.12
2023-04-19T12:44:25.326Z,100.00
2023-04-19T12:46:55.383Z,99.39
2023-04-19T12:49:22.446Z,98.38
2023-04-19T12:51:49.548Z,97.06
2023-04-19T12:54:16.639Z,95.43
2023-04-19T12:56:43.688Z,98.17
2023-04-19T12:59:11.605Z,94.15
2023-04-19T13:01:38.887Z,89.33
2023-04-19T13:04:07.899Z,88.50
2023-04-19T13:06:35.147Z,89.71
2023-04-19T13:09:11.512Z,88.32
2023-04-19T13:11:41.216Z,89.92
2023-04-19T13:14:08.363Z,89.18
2023-04-19T13:16:35.563Z,89.86
2023-04-19T13:19:02.669Z,91.80
2023-04-19T13:21:29.721Z,93.24
2023-04-19T13:23:58.990Z,90.47
2023-04-19T13:26:26.465Z,89.98
2023-04-19T13:28:53.578Z,90.31
2023-04-19T13:31:20.676Z,89.85
2023-04-19T13:33:47.942Z,90.15
2023-04-19T13:36:15.023Z,88.40
2023-04-19T13:38:42.112Z,88.60
2023-04-19T13:41:09.845Z,89.38
2023-04-19T13:43:36.994Z,89.27
2023-04-19T13:46:04.164Z,87.08
2023-04-19T13:48:31.507Z,87.27
2023-04-19T13:50:59.464Z,87.13
2023-04-19T13:53:29.191Z,88.24
2023-04-19T13:55:57.058Z,90.40
2023-04-19T13:58:27.368Z,90.71
2023-04-19T14:00:54.539Z,89.13
2023-04-19T14:03:23.246Z,87.84
2023-04-19T14:05:50.486Z,88.17
2023-04-19T14:08:17.724Z,91.06
2023-04-19T14:10:44.802Z,90.66
2023-04-19T14:13:11.934Z,89.91
2023-04-19T14:15:39.843Z,90.13
2023-04-19T14:18:07.101Z,92.07
2023-04-19T14:20:34.615Z,91.50
2023-04-19T14:23:02.006Z,89.48
2023-04-19T14:25:29.182Z,91.84
2023-04-19T14:27:56.313Z,91.58
2023-04-19T14:30:26.037Z,90.32
2023-04-19T14:32:53.353Z,94.29
2023-04-19T14:35:20.696Z,91.75
2023-04-19T14:37:47.802Z,92.99
2023-04-19T14:40:14.925Z,94.07
2023-04-19T14:42:41.986Z,94.17
2023-04-19T14:45:09.465Z,93.26
2023-04-19T14:47:36.638Z,94.22
2023-04-19T14:50:04.388Z,94.61
2023-04-19T14:52:31.520Z,93.45
2023-04-19T14:55:00.256Z,92.57
2023-04-19T14:57:28.244Z,93.28
2023-04-19T14:59:58.893Z,94.48
2023-04-19T15:02:26.068Z,94.34
2023-04-19T15:04:54.120Z,96.43
2023-04-19T15:07:21.871Z,96.02
2023-04-19T15:09:49.023Z,96.73
2023-04-19T15:12:16.163Z,96.67
2023-04-19T15:14:43.203Z,96.95
2023-04-19T15:17:10.440Z,97.00
2023-04-19T15:19:39.049Z,98.44
2023-04-19T15:22:06.519Z,98.08
2023-04-19T15:24:36.670Z,98.75
2023-04-19T15:27:04.251Z,97.25
2023-04-19T15:29:31.355Z,97.04
2023-04-19T15:31:58.543Z,96.34
2023-04-19T15:34:25.758Z,96.96
2023-04-19T15:36:52.825Z,97.50
2023-04-19T15:39:20.070Z,97.52
2023-04-19T15:41:47.204Z,95.98
2023-04-19T15:44:14.423Z,96.33
2023-04-19T15:46:41.653Z,96.49
2023-04-19T15:49:08.853Z,96.32
2023-04-19T15:51:36.154Z,95.29
2023-04-19T15:54:03.973Z,95.04
2023-04-19T15:56:31.510Z,95.40
2023-04-19T15:58:58.566Z,95.40
2023-04-19T16:01:25.698Z,95.74
2023-04-19T16:03:52.918Z,95.69
2023-04-19T16:06:20.334Z,96.00
2023-04-19T16:08:47.413Z,95.56
2023-04-19T16:11:14.488Z,95.99
2023-04-19T16:13:41.738Z,94.93
2023-04-19T16:16:08.951Z,95.31
2023-04-19T16:18:36.373Z,95.76
2023-04-19T16:21:04.006Z,94.82
2023-04-19T16:23:31.180Z,96.76
2023-04-19T16:25:58.273Z,96.04
2023-04-19T16:28:25.466Z,95.52
2023-04-19T16:30:52.583Z,96.37
2023-04-19T16:33:19.745Z,97.25
2023-04-19T16:35:46.983Z,97.01
2023-04-19T16:38:14.028Z,96.65
2023-04-19T16:40:41.141Z,93.66
2023-04-19T16:43:08.195Z,93.08
2023-04-19T16:45:35.517Z,91.23
2023-04-19T16:48:02.758Z,90.70
2023-04-19T16:50:30.016Z,89.49
2023-04-19T16:52:57.077Z,93.12
2023-04-19T16:55:24.257Z,94.21
2023-04-19T16:57:51.414Z,93.02
2023-04-19T17:00:18.849Z,91.53
2023-04-19T17:02:46.202Z,93.88
2023-04-19T17:05:14.579Z,93.10
2023-04-19T17:07:42.311Z,91.62
2023-04-19T17:10:10.002Z,90.07
2023-04-19T17:12:37.411Z,89.72
2023-04-19T17:15:05.053Z,89.55
2023-04-19T17:17:32.223Z,90.35
2023-04-19T17:19:59.705Z,91.70
2023-04-19T17:22:26.888Z,92.07
2023-04-19T17:24:56.020Z,91.25
2023-04-19T17:27:23.179Z,92.32
2023-04-19T17:29:50.394Z,92.03
2023-04-19T17:32:17.564Z,92.27
2023-04-19T17:34:44.704Z,93.08
2023-04-19T17:37:12.092Z,94.06
2023-04-19T17:39:39.188Z,94.90
2023-04-19T17:42:06.435Z,93.94
2023-04-19T17:44:33.562Z,94.02
2023-04-19T17:47:01.327Z,94.85
2023-04-19T17:49:28.924Z,97.08
2023-04-19T17:51:56.944Z,99.31
2023-04-19T17:54:24.345Z,100.00
2023-04-19T17:56:52.811Z,100.00
2023-04-19T17:59:20.303Z,100.00
2023-04-19T18:01:47.356Z,100.00
2023-04-19T18:04:18.109Z,100.00
2023-04-19T18:06:47.005Z,100.00
2023-04-19T18:09:14.659Z,100.00
2023-04-19T18:11:42.004Z,100.00
2023-04-19T18:14:09.257Z,100.00
2023-04-19T18:16:36.435Z,100.00
2023-04-19T18:19:03.694Z,100.00
2023-04-19T18:21:30.796Z,100.00
2023-04-19T18:23:58.005Z,100.00
2023-04-19T18:26:25.116Z,100.00
2023-04-19T18:28:52.268Z,99.69
2023-04-19T18:31:19.414Z,100.00
2023-04-19T18:33:46.489Z,100.00
2023-04-19T18:36:13.553Z,100.00
2023-04-19T18:38:40.717Z,100.00
2023-04-19T18:41:07.877Z,100.00
2023-04-19T18:43:35.115Z,100.00
2023-04-19T18:46:02.305Z,100.00
2023-04-19T18:48:30.095Z,100.00
2023-04-19T18:50:57.783Z,100.00
2023-04-19T18:53:27.804Z,100.00
2023-04-19T18:55:58.576Z,100.00
2023-04-19T18:58:29.662Z,100.00
2023-04-19T19:00:57.161Z,100.00
2023-04-19T19:05:55.641Z,100.00
2023-04-19T19:08:23.187Z,100.00
2023-04-19T19:11:14.049Z,100.00
2023-04-19T19:13:37.453Z,100.00
2023-04-19T19:16:05.843Z,100.00
2023-04-19T19:18:32.989Z,100.00
2023-04-19T19:21:00.513Z,100.00
2023-04-19T19:23:35.922Z,100.00
2023-04-19T19:26:05.147Z,100.00
2023-04-19T19:28:32.235Z,100.00
2023-04-19T19:30:59.411Z,100.00
2023-04-19T19:33:28.639Z,100.00
2023-04-19T19:35:56.189Z,100.00
2023-04-19T19:38:23.320Z,100.00
2023-04-19T19:43:20.549Z,100.00
2023-04-19T19:45:47.619Z,100.00
2023-04-19T19:48:14.726Z,100.00
2023-04-19T19:53:11.801Z,100.00
2023-04-19T19:55:38.848Z,100.00
2023-04-19T20:00:46.329Z,100.00
2023-04-19T20:03:14.797Z,100.00
2023-04-19T20:05:42.613Z,99.94
2023-04-19T20:08:12.510Z,98.42
2023-04-19T20:10:42.465Z,98.27
2023-04-19T20:13:09.624Z,98.56
2023-04-19T20:15:38.066Z,99.10
2023-04-19T20:18:05.846Z,99.74
2023-04-19T20:20:33.103Z,100.00
2023-04-19T20:23:00.211Z,100.00
2023-04-19T20:25:27.428Z,100.00
2023-04-19T20:27:55.209Z,99.87
2023-04-19T20:30:22.367Z,98.38
2023-04-19T20:32:50.522Z,98.92
2023-04-19T20:35:18.221Z,99.52
2023-04-19T20:37:46.860Z,99.71
2023-04-19T20:40:16.296Z,100.00
2023-04-19T20:42:45.059Z,100.00
2023-04-19T20:45:14.423Z,100.00
2023-04-19T20:47:42.951Z,100.00
2023-04-19T20:50:10.673Z,100.00
2023-04-19T20:52:37.896Z,100.00
2023-04-19T20:55:05.358Z,100.00
2023-04-19T20:57:32.448Z,100.00
2023-04-19T21:00:00.301Z,100.00
2023-04-19T21:02:28.323Z,100.00
2023-04-19T21:04:55.590Z,100.00
2023-04-19T21:07:22.674Z,100.00
2023-04-19T21:09:49.688Z,100.00
2023-04-19T21:12:17.998Z,100.00
2023-04-19T21:14:47.760Z,100.00
2023-04-19T21:17:16.331Z,100.00
2023-04-19T21:19:43.348Z,100.00
2023-04-19T21:22:10.925Z,100.00
2023-04-19T21:24:38.075Z,100.00
2023-04-19T21:27:05.346Z,100.00
2023-04-19T21:29:32.853Z,100.00
2023-04-19T21:32:00.267Z,100.00
2023-04-19T21:34:27.490Z,100.00
2023-04-19T21:36:54.634Z,100.00
2023-04-19T21:39:21.844Z,100.00
2023-04-19T21:41:48.889Z,100.00
2023-04-19T21:44:15.989Z,100.00
2023-04-19T21:46:43.190Z,100.00
2023-04-19T21:49:10.288Z,100.00
2023-04-19T21:51:37.424Z,100.00
2023-04-19T21:54:04.606Z,100.00
2023-04-19T21:56:32.061Z,100.00
2023-04-19T21:58:59.242Z,100.00
2023-04-19T22:01:27.742Z,100.00
2023-04-19T22:03:55.154Z,100.00
2023-04-19T22:06:22.405Z,100.00
2023-04-19T22:08:49.890Z,100.00
2023-04-19T22:11:17.282Z,100.00
2023-04-19T22:13:44.406Z,100.00
2023-04-19T22:16:11.481Z,100.00
2023-04-19T22:18:41.541Z,100.00
2023-04-19T22:21:09.960Z,100.00
2023-04-19T22:23:37.722Z,100.00
2023-04-19T22:26:04.889Z,100.00
2023-04-19T22:28:33.863Z,100.00
2023-04-19T22:31:00.922Z,100.00
2023-04-19T22:33:28.126Z,100.00
2023-04-19T22:35:55.757Z,100.00
2023-04-19T22:38:22.836Z,100.00
2023-04-19T22:40:49.965Z,100.00
2023-04-19T22:43:17.129Z,100.00
2023-04-19T22:45:47.942Z,100.00
2023-04-19T22:48:15.484Z,100.00
2023-04-19T22:50:43.012Z,100.00
2023-04-19T22:53:12.750Z,100.00
2023-04-19T22:55:40.643Z,100.00
2023-04-19T22:58:08.599Z,100.00
2023-04-19T23:00:37.349Z,99.81
2023-04-19T23:03:04.720Z,99.92
2023-04-19T23:05:31.924Z,100.00
2023-04-19T23:07:59.375Z,100.00
2023-04-19T23:10:26.932Z,100.00
2023-04-19T23:12:57.452Z,100.00
2023-04-19T23:15:25.333Z,100.00
2023-04-19T23:17:52.888Z,100.00
2023-04-19T23:20:19.999Z,100.00
2023-04-19T23:22:47.277Z,100.00
2023-04-19T23:25:14.419Z,100.00
2023-04-19T23:27:41.496Z,100.00
2023-04-19T23:30:09.061Z,100.00
2023-04-19T23:32:36.214Z,100.00
2023-04-19T23:35:03.825Z,100.00
2023-04-19T23:37:31.003Z,100.00
2023-04-19T23:39:58.129Z,100.00
2023-04-19T23:42:25.394Z,100.00
2023-04-19T23:44:55.829Z,100.00
2023-04-19T23:47:23.306Z,100.00
2023-04-19T23:49:50.528Z,100.00
2023-04-19T23:52:18.369Z,100.00
2023-04-19T23:54:45.426Z,100.00
2023-04-19T23:57:12.512Z,100.00
2023-04-19T23:59:39.822Z,100.00
